Time;durP1;ratioP1;P1;durP2;ratioP2;P2;SDS_P1;SDS_P2;PMS_P1;PMS_P2;Temp;Humidity;BMP_temperature;BMP_pressure;BME280_temperature;BME280_humidity;BME280_pressure;Samples;Min_cycle;Max_cycle;Signal;HPM_P1;HPM_P2
2023/09/01 00:00:17;;;;;;;1.38;0.98;;;13.90;72.40;;;;;;5107458;28;20403;-72
2023/09/01 00:02:43;;;;;;;1.90;0.90;;;13.90;72.40;;;;;;5101140;28;20055;-72
2023/09/01 00:05:09;;;;;;;1.30;0.70;;;13.90;72.40;;;;;;5082633;28;20036;-72
2023/09/01 00:07:35;;;;;;;3.00;1.10;;;13.90;72.40;;;;;;5072068;28;20048;-72
2023/09/01 00:10:01;;;;;;;1.60;0.70;;;13.90;72.40;;;;;;5072553;28;20044;-72
2023/09/01 00:12:26;;;;;;;2.05;1.10;;;13.90;72.40;;;;;;5109375;28;20372;-72
2023/09/01 00:14:53;;;;;;;2.88;1.27;;;13.90;72.50;;;;;;5112757;28;20072;-72
2023/09/01 00:17:18;;;;;;;2.95;1.30;;;13.90;72.70;;;;;;5112470;28;20151;-72
2023/09/01 00:19:44;;;;;;;2.65;1.10;;;13.90;72.80;;;;;;5108016;28;20076;-72
2023/09/01 00:22:10;;;;;;;2.97;0.90;;;13.90;72.80;;;;;;5074756;28;20051;-72
2023/09/01 00:24:37;;;;;;;3.42;1.52;;;13.90;72.80;;;;;;5092525;28;20044;-72
2023/09/01 00:27:03;;;;;;;2.13;0.93;;;13.90;72.90;;;;;;5092873;28;20101;-72
2023/09/01 00:29:33;;;;;;;2.35;0.98;;;13.90;73.00;;;;;;5112475;28;20494;-72
2023/09/01 00:31:59;;;;;;;1.48;1.02;;;13.90;73.00;;;;;;5112548;28;20039;-72
2023/09/01 00:34:24;;;;;;;2.08;1.05;;;13.90;73.00;;;;;;5111876;28;20051;-72
2023/09/01 00:36:51;;;;;;;2.60;1.40;;;13.90;73.00;;;;;;5108330;28;20153;-72
2023/09/01 00:39:17;;;;;;;3.67;1.27;;;13.90;73.00;;;;;;5112292;28;20603;-72
2023/09/01 00:41:44;;;;;;;2.10;1.30;;;13.90;73.00;;;;;;5106210;28;20120;-72
2023/09/01 00:44:13;;;;;;;2.55;1.05;;;13.90;73.00;;;;;;5093369;28;20499;-72
2023/09/01 00:46:43;;;;;;;2.47;1.10;;;13.90;73.00;;;;;;5091924;28;20048;-72
2023/09/01 00:49:10;;;;;;;3.35;1.00;;;13.90;72.80;;;;;;5092018;28;20039;-72
2023/09/01 00:51:36;;;;;;;1.83;1.10;;;13.90;72.80;;;;;;5111855;28;20048;-72
2023/09/01 00:54:03;;;;;;;1.63;1.05;;;13.90;72.90;;;;;;5103262;28;20433;-72
2023/09/01 00:56:29;;;;;;;2.25;1.00;;;13.90;73.00;;;;;;5078895;28;20082;-72
2023/09/01 00:58:54;;;;;;;3.05;1.00;;;13.90;73.00;;;;;;5071661;28;20041;-72
2023/09/01 01:01:20;;;;;;;2.08;0.93;;;13.90;73.00;;;;;;5088206;28;20035;-72
2023/09/01 01:03:49;;;;;;;2.47;1.17;;;13.90;73.00;;;;;;5108649;28;20115;-72
2023/09/01 01:06:17;;;;;;;1.73;1.20;;;13.90;73.00;;;;;;5091778;28;20118;-72
2023/09/01 01:08:56;;;;;;;1.92;1.20;;;13.90;72.90;;;;;;5091464;28;20126;-72
2023/09/01 01:12:08;;;;;;;3.58;0.85;;;13.90;72.90;;;;;;5082343;28;20097;-72
2023/09/01 01:14:45;;;;;;;1.63;0.85;;;13.90;72.80;;;;;;5059949;28;20070;-72
2023/09/01 01:17:12;;;;;;;4.47;1.08;;;13.90;73.00;;;;;;5073023;28;20080;-72
2023/09/01 01:19:41;;;;;;;2.95;1.10;;;13.90;73.00;;;;;;5111950;28;20047;-72
2023/09/01 01:22:07;;;;;;;1.73;1.10;;;13.90;73.00;;;;;;5108080;28;20028;-72
2023/09/01 01:24:35;;;;;;;1.38;0.90;;;13.90;73.00;;;;;;5091879;28;20048;-72
2023/09/01 01:27:01;;;;;;;2.95;1.10;;;13.90;73.10;;;;;;5089505;28;20372;-72
2023/09/01 01:29:26;;;;;;;2.85;1.45;;;13.80;73.10;;;;;;5087553;28;20172;-72
2023/09/01 01:31:57;;;;;;;2.33;1.00;;;13.90;73.20;;;;;;5091284;28;20092;-72
2023/09/01 01:34:35;;;;;;;3.97;1.70;;;13.90;73.30;;;;;;5096053;28;20483;-72
2023/09/01 01:37:10;;;;;;;2.55;1.33;;;13.90;73.20;;;;;;5095694;28;20094;-72
2023/09/01 01:39:38;;;;;;;3.67;1.92;;;13.90;73.20;;;;;;5095282;28;20123;-72
2023/09/01 01:42:15;;;;;;;2.42;1.65;;;13.90;73.20;;;;;;5095532;28;20051;-72
2023/09/01 01:44:48;;;;;;;2.30;1.50;;;13.80;73.30;;;;;;5081560;28;20514;-72
2023/09/01 01:47:15;;;;;;;5.63;2.20;;;13.80;73.40;;;;;;5074846;28;20086;-72
2023/09/01 01:49:41;;;;;;;5.07;1.88;;;13.80;73.40;;;;;;5114719;28;20176;-72
2023/09/01 01:52:07;;;;;;;3.05;1.70;;;13.80;73.50;;;;;;5115760;28;20130;-72
2023/09/01 01:54:33;;;;;;;3.78;2.05;;;13.80;73.60;;;;;;5098479;28;20040;-72
2023/09/01 01:56:59;;;;;;;3.95;1.63;;;13.80;73.80;;;;;;5113889;28;20052;-72
2023/09/01 01:59:25;;;;;;;3.28;1.27;;;13.70;73.90;;;;;;5095115;28;20040;-72
2023/09/01 02:01:51;;;;;;;2.40;1.40;;;13.70;74.00;;;;;;5080305;28;20511;-72
2023/09/01 02:04:16;;;;;;;2.00;1.20;;;13.70;74.10;;;;;;5097236;28;20028;-72
2023/09/01 02:06:42;;;;;;;3.05;1.55;;;13.70;74.10;;;;;;5115294;28;20039;-72
2023/09/01 02:09:11;;;;;;;2.38;1.52;;;13.70;74.10;;;;;;5098104;28;20130;-72
2023/09/01 02:11:37;;;;;;;4.38;2.50;;;13.80;74.20;;;;;;5113980;28;20048;-72
2023/09/01 02:14:03;;;;;;;4.60;2.03;;;13.80;74.20;;;;;;5092485;28;20049;-72
2023/09/01 02:16:29;;;;;;;2.42;1.58;;;13.70;74.20;;;;;;5115011;28;20487;-72
2023/09/01 02:18:56;;;;;;;4.78;3.38;;;13.80;74.30;;;;;;5098660;28;20052;-72
2023/09/01 02:21:21;;;;;;;6.30;3.60;;;13.80;74.40;;;;;;5102417;28;20033;-72
2023/09/01 02:23:48;;;;;;;6.85;4.20;;;13.70;74.30;;;;;;5094706;28;20488;-72
2023/09/01 02:26:24;;;;;;;6.18;4.05;;;13.70;74.20;;;;;;5099259;28;20039;-72
2023/09/01 02:28:50;;;;;;;7.07;3.72;;;13.70;74.40;;;;;;5114641;28;20100;-72
2023/09/01 02:31:17;;;;;;;3.95;2.60;;;13.60;74.60;;;;;;5097995;28;20032;-72
2023/09/01 02:33:43;;;;;;;3.60;2.35;;;13.50;74.80;;;;;;5113167;28;20689;-72
2023/09/01 02:36:41;;;;;;;3.83;2.45;;;13.50;75.10;;;;;;5094851;28;20043;-72
2023/09/01 02:39:07;;;;;;;4.63;2.63;;;13.50;75.10;;;;;;5050132;28;20052;-72
2023/09/01 02:41:33;;;;;;;3.08;2.05;;;13.50;75.40;;;;;;5095226;28;20452;-72
2023/09/01 02:43:58;;;;;;;5.55;2.35;;;13.50;75.40;;;;;;5076865;28;20047;-72
2023/09/01 02:46:24;;;;;;;3.72;2.20;;;13.50;75.50;;;;;;5093377;28;20109;-72
2023/09/01 02:48:50;;;;;;;3.92;2.15;;;13.50;75.50;;;;;;5095137;28;20032;-72
2023/09/01 02:51:17;;;;;;;2.88;1.95;;;13.50;75.50;;;;;;5075157;28;20040;-72
2023/09/01 02:53:43;;;;;;;5.95;2.67;;;13.50;75.50;;;;;;5093966;28;20124;-72
2023/09/01 02:56:08;;;;;;;3.05;2.10;;;13.50;75.40;;;;;;5103952;28;20089;-72
2023/09/01 02:58:35;;;;;;;3.78;2.33;;;13.60;75.40;;;;;;5097267;28;20043;-72
2023/09/01 03:01:08;;;;;;;3.22;2.38;;;13.60;75.30;;;;;;5114134;28;20046;-72
2023/09/01 03:03:35;;;;;;;4.50;2.95;;;13.60;75.30;;;;;;5113999;28;20196;-72
2023/09/01 03:06:01;;;;;;;4.50;2.92;;;13.60;75.10;;;;;;5114053;28;20082;-72
2023/09/01 03:08:26;;;;;;;4.28;2.70;;;13.60;75.00;;;;;;5063191;28;20086;-72
2023/09/01 03:10:52;;;;;;;4.40;2.33;;;13.60;75.00;;;;;;5109607;28;20102;-72
2023/09/01 03:13:19;;;;;;;3.17;2.10;;;13.60;74.90;;;;;;5112201;28;20538;-72
2023/09/01 03:15:46;;;;;;;2.95;1.90;;;13.60;74.80;;;;;;5114120;28;20054;-72
2023/09/01 03:18:11;;;;;;;4.05;2.20;;;13.60;74.80;;;;;;5114074;28;20122;-72
2023/09/01 03:20:38;;;;;;;3.00;2.08;;;13.60;74.80;;;;;;5113462;28;20145;-72
2023/09/01 03:23:04;;;;;;;3.78;2.25;;;13.60;74.70;;;;;;5089585;28;20123;-72
2023/09/01 03:25:30;;;;;;;5.05;2.10;;;13.60;74.70;;;;;;5089031;28;20044;-72
2023/09/01 03:27:56;;;;;;;3.03;2.00;;;13.60;74.70;;;;;;5083490;28;20043;-72
2023/09/01 03:30:21;;;;;;;3.10;2.00;;;13.60;74.70;;;;;;5093451;28;20043;-72
2023/09/01 03:32:47;;;;;;;5.55;3.35;;;13.60;74.60;;;;;;5093435;28;20044;-72
2023/09/01 03:35:13;;;;;;;8.07;4.75;;;13.70;74.60;;;;;;5093163;28;20051;-72
2023/09/01 03:37:39;;;;;;;6.63;4.43;;;13.60;74.50;;;;;;5076483;28;20060;-72
2023/09/01 03:40:09;;;;;;;5.45;4.32;;;13.60;74.60;;;;;;5093749;28;20395;-72
2023/09/01 03:42:38;;;;;;;5.72;3.95;;;13.50;74.60;;;;;;5094974;28;20047;-72
2023/09/01 03:45:04;;;;;;;3.60;2.97;;;13.50;74.90;;;;;;5092723;28;20125;-72
2023/09/01 03:47:30;;;;;;;5.75;3.70;;;13.40;75.00;;;;;;5104639;28;20039;-72
2023/09/01 03:49:56;;;;;;;4.00;3.00;;;13.40;75.30;;;;;;5079773;28;20101;-72
2023/09/01 03:52:22;;;;;;;4.05;3.55;;;13.40;75.40;;;;;;5113116;28;20444;-72
2023/09/01 03:54:47;;;;;;;5.50;2.95;;;13.40;75.50;;;;;;5112908;28;20043;-72
2023/09/01 03:57:15;;;;;;;5.20;3.33;;;13.30;75.50;;;;;;5108054;28;20127;-72
2023/09/01 03:59:42;;;;;;;3.67;2.28;;;13.30;75.60;;;;;;5075480;28;20040;-72
2023/09/01 04:02:08;;;;;;;3.08;2.20;;;13.30;75.70;;;;;;5079338;28;20085;-72
2023/09/01 04:04:34;;;;;;;4.05;2.50;;;13.30;75.70;;;;;;5092991;28;20036;-72
2023/09/01 04:06:59;;;;;;;3.65;2.53;;;13.40;75.80;;;;;;5087293;28;20400;-72
2023/09/01 04:09:25;;;;;;;5.50;2.75;;;13.30;75.70;;;;;;5112473;28;20118;-72
2023/09/01 04:11:51;;;;;;;4.60;3.35;;;13.30;75.70;;;;;;5112749;28;20035;-72
2023/09/01 04:14:16;;;;;;;5.68;3.78;;;13.40;75.70;;;;;;5112121;28;20028;-72
2023/09/01 04:16:42;;;;;;;6.03;4.45;;;13.40;75.60;;;;;;5092048;28;20044;-72
2023/09/01 04:19:08;;;;;;;5.93;4.72;;;13.40;75.50;;;;;;5093602;28;20120;-72
2023/09/01 04:21:33;;;;;;;5.93;4.22;;;13.40;75.50;;;;;;5112496;28;20051;-72
2023/09/01 04:23:59;;;;;;;5.95;3.45;;;13.40;75.40;;;;;;5102843;28;20047;-72
2023/09/01 04:26:25;;;;;;;5.47;3.22;;;13.30;75.40;;;;;;5092531;28;20047;-72
2023/09/01 04:28:51;;;;;;;6.93;4.80;;;13.30;75.50;;;;;;5082988;28;20089;-72
2023/09/01 04:31:27;;;;;;;5.45;4.05;;;13.30;75.60;;;;;;5095642;28;20040;-72
2023/09/01 04:33:54;;;;;;;5.70;3.42;;;13.30;75.70;;;;;;5097218;28;20436;-72
2023/09/01 04:36:20;;;;;;;5.35;3.05;;;13.30;75.80;;;;;;5100987;28;20043;-74
2023/09/01 04:38:46;;;;;;;5.68;3.70;;;13.20;75.80;;;;;;5092853;28;20048;-72
2023/09/01 04:41:12;;;;;;;5.13;3.40;;;13.30;76.00;;;;;;5112285;28;20052;-72
2023/09/01 04:43:38;;;;;;;5.70;4.15;;;13.20;76.10;;;;;;5112101;28;20122;-72
2023/09/01 04:46:04;;;;;;;5.35;3.30;;;13.20;76.10;;;;;;5111973;28;20116;-72
2023/09/01 04:48:30;;;;;;;4.68;3.05;;;13.20;76.10;;;;;;5106597;28;20036;-72
2023/09/01 04:50:56;;;;;;;6.45;4.13;;;13.20;76.20;;;;;;5090488;28;20101;-72
2023/09/01 04:53:23;;;;;;;7.95;3.85;;;13.30;76.30;;;;;;5091849;28;20039;-72
2023/09/01 04:55:49;;;;;;;5.55;3.40;;;13.30;76.30;;;;;;5100451;28;20079;-72
2023/09/01 04:58:15;;;;;;;6.03;3.35;;;13.30;76.30;;;;;;5094981;28;20083;-72
2023/09/01 05:00:41;;;;;;;4.47;3.22;;;13.30;76.40;;;;;;5102971;28;20048;-72
2023/09/01 05:03:07;;;;;;;3.90;2.67;;;13.30;76.40;;;;;;5091616;28;20093;-72
2023/09/01 05:05:33;;;;;;;5.07;2.80;;;13.30;76.50;;;;;;5091773;28;20052;-72
2023/09/01 05:07:59;;;;;;;3.80;2.88;;;13.30;76.40;;;;;;5092817;28;20039;-72
2023/09/01 05:10:25;;;;;;;4.20;3.22;;;13.30;76.40;;;;;;5079051;28;20138;-70
2023/09/01 05:12:51;;;;;;;5.38;3.40;;;13.30;76.40;;;;;;5110839;28;20495;-70
2023/09/01 05:15:18;;;;;;;4.35;3.63;;;13.40;76.40;;;;;;5108744;28;20071;-70
2023/09/01 05:17:45;;;;;;;5.30;3.25;;;13.40;76.30;;;;;;5095982;28;20127;-70
2023/09/01 05:20:11;;;;;;;3.92;3.10;;;13.40;76.20;;;;;;5095533;28;20105;-70
2023/09/01 05:22:37;;;;;;;4.85;3.08;;;13.40;76.20;;;;;;5095505;28;20071;-70
2023/09/01 05:25:03;;;;;;;4.13;3.15;;;13.40;76.10;;;;;;5095898;28;20067;-70
2023/09/01 05:27:29;;;;;;;4.95;3.20;;;13.40;76.10;;;;;;5095588;28;20044;-70
2023/09/01 05:29:55;;;;;;;4.55;3.53;;;13.40;76.20;;;;;;5109887;28;20066;-70
2023/09/01 05:32:21;;;;;;;6.15;3.92;;;13.40;76.20;;;;;;5103212;28;20104;-70
2023/09/01 05:34:47;;;;;;;7.95;4.68;;;13.40;76.20;;;;;;5095420;28;20052;-70
2023/09/01 05:37:13;;;;;;;8.57;5.00;;;13.40;76.20;;;;;;5095683;28;20039;-70
2023/09/01 05:39:40;;;;;;;6.90;4.80;;;13.40;76.20;;;;;;5095378;28;20048;-70
2023/09/01 05:42:07;;;;;;;8.95;5.30;;;13.40;76.20;;;;;;5095287;28;20040;-70
2023/09/01 05:44:33;;;;;;;8.18;5.30;;;13.30;76.40;;;;;;5108814;28;20031;-70
2023/09/01 05:46:59;;;;;;;7.30;5.90;;;13.30;76.50;;;;;;5113519;28;20055;-71
2023/09/01 05:49:25;;;;;;;7.95;5.65;;;13.30;76.70;;;;;;5066663;28;20036;-71
2023/09/01 05:51:51;;;;;;;10.25;6.68;;;13.30;76.90;;;;;;5075145;28;20097;-71
2023/09/01 05:54:18;;;;;;;9.88;8.23;;;13.30;77.20;;;;;;5074716;28;20123;-72
2023/09/01 05:56:44;;;;;;;9.63;8.32;;;13.30;77.50;;;;;;5074685;28;20500;-72
2023/09/01 05:59:10;;;;;;;12.70;9.10;;;13.30;77.90;;;;;;5074936;28;20101;-72
2023/09/01 06:01:36;;;;;;;11.63;8.50;;;13.20;78.30;;;;;;5108535;28;20407;-72
2023/09/01 06:04:05;;;;;;;12.63;9.43;;;13.20;78.50;;;;;;5084960;28;20048;-72
2023/09/01 06:06:35;;;;;;;11.68;9.13;;;13.20;78.90;;;;;;5075508;28;20506;-72
2023/09/01 06:09:05;;;;;;;12.55;10.10;;;13.20;79.20;;;;;;5095033;28;20048;-72
2023/09/01 06:11:31;;;;;;;11.68;10.48;;;13.20;79.50;;;;;;5094735;28;20047;-72
2023/09/01 06:13:58;;;;;;;13.55;11.15;;;13.20;79.60;;;;;;5094998;28;20040;-72
2023/09/01 06:16:27;;;;;;;14.70;11.95;;;13.30;80.00;;;;;;5077732;28;20075;-72
2023/09/01 06:18:53;;;;;;;13.88;12.23;;;13.30;80.20;;;;;;5094087;28;20055;-72
2023/09/01 06:21:20;;;;;;;19.13;12.38;;;13.30;80.40;;;;;;5079324;28;20040;-72
2023/09/01 06:23:47;;;;;;;14.65;11.73;;;13.30;80.60;;;;;;5074533;28;20404;-72
2023/09/01 06:26:13;;;;;;;13.73;12.30;;;13.30;80.60;;;;;;5074168;28;20051;-72
2023/09/01 06:28:40;;;;;;;17.30;13.43;;;13.40;80.90;;;;;;5083850;28;20039;-72
2023/09/01 06:31:06;;;;;;;14.80;12.82;;;13.40;81.10;;;;;;5077383;28;20047;-72
2023/09/01 06:33:32;;;;;;;16.02;13.77;;;13.40;81.30;;;;;;5094325;28;20055;-72
2023/09/01 06:35:57;;;;;;;18.15;14.18;;;13.50;81.50;;;;;;5094301;28;20048;-72
2023/09/01 06:38:23;;;;;;;16.52;13.88;;;13.60;81.60;;;;;;5077032;28;20067;-72
2023/09/01 06:40:49;;;;;;;16.00;14.35;;;13.60;81.70;;;;;;5094239;28;20035;-72
2023/09/01 06:43:15;;;;;;;16.73;14.38;;;13.70;81.70;;;;;;5077473;28;20051;-72
2023/09/01 06:45:40;;;;;;;18.02;14.95;;;13.70;81.80;;;;;;5094064;28;20388;-72
2023/09/01 06:48:06;;;;;;;20.10;15.07;;;13.70;81.80;;;;;;5094115;28;20050;-72
2023/09/01 06:50:32;;;;;;;20.65;15.80;;;13.80;81.80;;;;;;5095503;28;20051;-72
2023/09/01 06:52:59;;;;;;;17.58;14.70;;;13.80;82.00;;;;;;5093972;28;20044;-72
2023/09/01 06:55:24;;;;;;;16.77;14.93;;;13.80;82.30;;;;;;5093604;28;20123;-72
2023/09/01 06:57:50;;;;;;;16.50;14.77;;;14.00;82.50;;;;;;5094950;28;20115;-72
2023/09/01 07:00:16;;;;;;;14.75;13.15;;;14.00;82.60;;;;;;5093653;28;20040;-72
2023/09/01 07:02:42;;;;;;;18.75;15.85;;;14.10;82.70;;;;;;5093726;28;20101;-72
2023/09/01 07:05:08;;;;;;;15.77;14.13;;;14.20;82.70;;;;;;5093598;28;20043;-72
2023/09/01 07:07:34;;;;;;;18.83;14.40;;;14.30;82.40;;;;;;5093619;28;20036;-72
2023/09/01 07:09:59;;;;;;;16.33;14.50;;;14.40;82.40;;;;;;5076858;28;20047;-72
2023/09/01 07:12:25;;;;;;;18.20;14.35;;;14.50;82.50;;;;;;5094080;28;20042;-72
2023/09/01 07:14:51;;;;;;;20.80;14.93;;;14.60;82.50;;;;;;5088397;28;20080;-72
2023/09/01 07:17:21;;;;;;;18.80;12.95;;;14.70;82.40;;;;;;5090348;28;20097;-72
2023/09/01 07:19:47;;;;;;;16.95;15.15;;;14.80;82.40;;;;;;5081046;28;21310;-72
2023/09/01 07:22:13;;;;;;;17.02;14.77;;;14.90;82.20;;;;;;5087534;28;20488;-72
2023/09/01 07:24:39;;;;;;;17.55;15.15;;;15.00;82.10;;;;;;5088004;28;20088;-72
2023/09/01 07:27:06;;;;;;;20.80;16.65;;;15.00;81.90;;;;;;5086643;28;20479;-72
2023/09/01 07:29:32;;;;;;;19.77;17.05;;;15.10;81.70;;;;;;5087273;28;20038;-72
2023/09/01 07:32:01;;;;;;;19.75;17.00;;;15.10;81.60;;;;;;5070996;28;20051;-72
2023/09/01 07:34:27;;;;;;;18.65;16.48;;;15.20;81.50;;;;;;5087857;28;20069;-72
2023/09/01 07:36:53;;;;;;;19.05;15.82;;;15.30;81.40;;;;;;5087683;28;20040;-72
2023/09/01 07:39:18;;;;;;;21.05;16.48;;;15.30;81.20;;;;;;5087063;28;20066;-72
2023/09/01 07:41:44;;;;;;;20.73;17.67;;;15.40;81.10;;;;;;5087525;28;20130;-72
2023/09/01 07:44:10;;;;;;;20.27;18.08;;;15.40;81.10;;;;;;5070325;28;20418;-72
2023/09/01 07:46:36;;;;;;;20.65;18.30;;;15.50;81.20;;;;;;5086070;28;20079;-72
2023/09/01 07:49:02;;;;;;;24.23;18.30;;;15.50;81.10;;;;;;5053618;28;20486;-72
2023/09/01 07:51:28;;;;;;;20.20;18.10;;;15.50;81.10;;;;;;5070886;28;20109;-72
2023/09/01 07:53:54;;;;;;;17.35;15.45;;;15.60;80.90;;;;;;5087269;28;20499;-72
2023/09/01 07:56:21;;;;;;;21.42;18.30;;;15.60;80.90;;;;;;5087325;28;20046;-72
2023/09/01 07:58:47;;;;;;;21.73;17.23;;;15.70;81.00;;;;;;5089103;28;20047;-72
2023/09/01 08:01:12;;;;;;;20.27;17.60;;;15.70;80.90;;;;;;5064447;28;20044;-72
2023/09/01 08:03:38;;;;;;;21.98;18.05;;;15.80;81.00;;;;;;5072531;28;20046;-72
2023/09/01 08:06:04;;;;;;;21.30;17.40;;;15.90;81.10;;;;;;5072229;28;20502;-72
2023/09/01 08:08:30;;;;;;;20.38;17.13;;;15.90;80.90;;;;;;5078704;28;20035;-72
2023/09/01 08:10:56;;;;;;;19.45;17.10;;;16.00;81.00;;;;;;5106696;28;20047;-72
2023/09/01 08:13:22;;;;;;;19.38;16.17;;;16.10;81.00;;;;;;5092940;28;20097;-71
2023/09/01 08:15:49;;;;;;;18.17;15.25;;;16.10;80.90;;;;;;5091607;28;20044;-72
2023/09/01 08:18:15;;;;;;;20.15;16.70;;;16.20;80.70;;;;;;5092057;28;20048;-72
2023/09/01 08:20:42;;;;;;;18.33;16.10;;;16.30;80.50;;;;;;5092405;28;20085;-72
2023/09/01 08:23:09;;;;;;;21.58;16.02;;;16.30;80.30;;;;;;5092458;28;20122;-72
2023/09/01 08:25:35;;;;;;;17.23;15.40;;;16.40;80.10;;;;;;5092729;28;20042;-72
2023/09/01 08:28:03;;;;;;;20.77;15.40;;;16.40;79.90;;;;;;5092078;28;20110;-72
2023/09/01 08:30:29;;;;;;;17.85;16.00;;;16.40;79.80;;;;;;5091989;28;20419;-70
2023/09/01 08:32:54;;;;;;;18.25;15.40;;;16.40;79.60;;;;;;5074857;28;20044;-70
2023/09/01 08:35:20;;;;;;;19.90;16.98;;;16.50;79.50;;;;;;5075038;28;20047;-70
2023/09/01 08:37:46;;;;;;;18.33;16.27;;;16.60;79.70;;;;;;5092209;28;20051;-70
2023/09/01 08:40:12;;;;;;;21.92;13.73;;;16.60;79.60;;;;;;5091775;28;20051;-70
2023/09/01 08:42:49;;;;;;;17.65;13.85;;;16.70;79.50;;;;;;5091281;28;20052;-70
2023/09/01 08:45:16;;;;;;;16.77;12.93;;;16.80;79.30;;;;;;5091668;28;20044;-71
2023/09/01 08:47:47;;;;;;;17.20;15.30;;;16.80;79.30;;;;;;5059887;28;20119;-71
2023/09/01 08:50:15;;;;;;;16.55;14.75;;;16.90;79.00;;;;;;5091564;28;20131;-71
2023/09/01 08:52:46;;;;;;;15.80;14.10;;;17.00;78.80;;;;;;5091725;28;20048;-70
2023/09/01 08:55:18;;;;;;;15.60;13.80;;;17.10;78.50;;;;;;5091626;28;20047;-71
2023/09/01 08:57:47;;;;;;;17.63;14.95;;;17.20;78.20;;;;;;5091768;28;20052;-71
2023/09/01 09:00:13;;;;;;;18.42;13.93;;;17.30;78.10;;;;;;5074843;28;20128;-70
2023/09/01 09:02:44;;;;;;;20.60;15.65;;;17.40;77.60;;;;;;5074846;28;20040;-71
2023/09/01 09:05:13;;;;;;;16.90;14.02;;;17.40;77.20;;;;;;5071528;28;20032;-71
2023/09/01 09:07:39;;;;;;;18.55;14.18;;;17.50;77.40;;;;;;5071209;28;20048;-71
2023/09/01 09:10:06;;;;;;;18.25;14.98;;;17.60;77.20;;;;;;5071732;28;20044;-71
2023/09/01 09:12:37;;;;;;;20.13;15.25;;;17.70;77.00;;;;;;5071451;28;20045;-71
2023/09/01 09:15:03;;;;;;;17.75;13.15;;;17.70;77.00;;;;;;5071873;28;20048;-70
2023/09/01 09:17:44;;;;;;;15.60;12.75;;;17.80;76.90;;;;;;5072158;28;20052;-70
2023/09/01 09:20:15;;;;;;;17.48;13.68;;;18.00;76.10;;;;;;5071377;28;20049;-70
2023/09/01 09:23:00;;;;;;;18.95;13.23;;;18.10;76.30;;;;;;5071405;28;20044;-71
2023/09/01 09:25:31;;;;;;;17.95;13.75;;;18.20;75.90;;;;;;5087760;28;20646;-71
2023/09/01 09:28:20;;;;;;;18.58;12.85;;;18.30;76.20;;;;;;5071480;28;20344;-70
2023/09/01 09:30:51;;;;;;;17.77;12.48;;;18.50;75.20;;;;;;5070912;28;20132;-70
2023/09/01 09:33:26;;;;;;;16.60;12.60;;;18.50;74.40;;;;;;5072356;28;20055;-71
2023/09/01 09:35:52;;;;;;;16.42;13.07;;;18.60;73.60;;;;;;5071554;28;20040;-70
2023/09/01 09:38:18;;;;;;;16.35;12.70;;;18.70;74.10;;;;;;5071060;28;20557;-71
2023/09/01 09:40:56;;;;;;;17.70;11.38;;;18.70;74.00;;;;;;5070952;28;20041;-70
2023/09/01 09:43:22;;;;;;;15.20;12.13;;;18.70;73.30;;;;;;5071320;28;20079;-71
2023/09/01 09:45:51;;;;;;;18.10;11.55;;;18.80;73.60;;;;;;5070932;28;20504;-70
2023/09/01 09:48:17;;;;;;;14.50;10.90;;;18.80;73.70;;;;;;5093465;28;20048;-70
2023/09/01 09:50:43;;;;;;;14.68;10.55;;;18.90;73.10;;;;;;5071243;28;20044;-70
2023/09/01 09:53:14;;;;;;;15.32;10.65;;;18.90;72.40;;;;;;5071205;28;20044;-70
2023/09/01 09:55:46;;;;;;;14.00;9.25;;;18.90;72.30;;;;;;5074696;28;20038;-70
2023/09/01 09:58:13;;;;;;;13.90;9.20;;;19.00;71.80;;;;;;5074621;28;20036;-70
2023/09/01 10:01:02;;;;;;;12.45;7.22;;;19.00;71.50;;;;;;5074860;28;20377;-70
2023/09/01 10:03:31;;;;;;;14.70;5.57;;;19.10;70.10;;;;;;5075485;28;20487;-70
2023/09/01 10:05:58;;;;;;;10.80;5.55;;;19.10;68.80;;;;;;5057830;28;20051;-70
2023/09/01 10:08:25;;;;;;;11.23;5.57;;;19.10;68.20;;;;;;5074301;28;20075;-70
2023/09/01 10:10:53;;;;;;;10.77;4.57;;;19.10;67.50;;;;;;5074462;28;20479;-70
2023/09/01 10:13:21;;;;;;;11.13;4.90;;;19.10;67.20;;;;;;5074689;28;20093;-70
2023/09/01 10:15:48;;;;;;;11.23;4.95;;;19.10;66.90;;;;;;5074384;28;20080;-70
2023/09/01 10:18:14;;;;;;;11.15;5.20;;;19.10;66.60;;;;;;5074576;28;20108;-70
2023/09/01 10:20:43;;;;;;;8.18;4.53;;;19.10;66.80;;;;;;5080017;28;20059;-70
2023/09/01 10:23:09;;;;;;;9.98;5.72;;;19.10;67.10;;;;;;5094345;28;20483;-70
2023/09/01 10:25:35;;;;;;;10.68;5.05;;;19.10;67.50;;;;;;5094428;28;20040;-70
2023/09/01 10:28:10;;;;;;;9.65;6.43;;;19.10;67.60;;;;;;5094286;28;20044;-70
2023/09/01 10:30:37;;;;;;;15.07;6.32;;;19.10;67.60;;;;;;5094520;28;20048;-70
2023/09/01 10:33:12;;;;;;;17.23;8.30;;;19.10;67.50;;;;;;5094202;28;20391;-70
2023/09/01 10:35:44;;;;;;;13.57;7.00;;;19.10;67.70;;;;;;5094204;28;20055;-70
2023/09/01 10:38:12;;;;;;;12.43;6.63;;;19.10;68.20;;;;;;5094867;28;20093;-70
2023/09/01 10:40:39;;;;;;;11.77;6.68;;;19.10;67.50;;;;;;5094275;28;20042;-70
2023/09/01 10:43:04;;;;;;;12.75;6.78;;;19.10;68.20;;;;;;5093998;28;20044;-70
2023/09/01 10:45:30;;;;;;;10.13;6.07;;;19.10;68.60;;;;;;5093797;28;20055;-70
2023/09/01 10:47:56;;;;;;;13.13;7.93;;;19.10;68.60;;;;;;5077191;28;20043;-70
2023/09/01 10:50:22;;;;;;;11.68;6.85;;;19.20;68.50;;;;;;5094156;28;20079;-70
2023/09/01 10:53:26;;;;;;;11.57;6.25;;;19.10;68.20;;;;;;5093927;28;20044;-70
2023/09/01 10:56:11;;;;;;;12.38;6.75;;;19.20;68.40;;;;;;5091978;28;20093;-70
2023/09/01 10:58:48;;;;;;;11.38;6.25;;;19.20;68.90;;;;;;5094030;28;20078;-70
2023/09/01 11:01:43;;;;;;;9.88;5.85;;;19.30;68.80;;;;;;5093686;28;20048;-70
2023/09/01 11:04:20;;;;;;;11.65;6.97;;;19.30;67.50;;;;;;5076667;28;20060;-70
2023/09/01 11:07:03;;;;;;;10.18;6.47;;;19.30;66.90;;;;;;5093100;28;20040;-70
2023/09/01 11:09:34;;;;;;;10.07;6.53;;;19.40;66.20;;;;;;5082716;28;20049;-70
2023/09/01 11:12:07;;;;;;;11.07;6.07;;;19.40;66.80;;;;;;5073343;28;20045;-71
2023/09/01 11:14:35;;;;;;;10.10;6.47;;;19.40;66.80;;;;;;5073296;28;20106;-70
2023/09/01 11:17:03;;;;;;;10.65;5.97;;;19.40;66.50;;;;;;5073210;28;20553;-70
2023/09/01 11:19:33;;;;;;;10.93;6.20;;;19.40;66.50;;;;;;5084518;28;20074;-71
2023/09/01 11:21:59;;;;;;;9.07;5.57;;;19.50;66.10;;;;;;5103342;28;20051;-71
2023/09/01 11:24:25;;;;;;;11.00;5.25;;;19.50;66.20;;;;;;5107122;28;20043;-71
2023/09/01 11:26:51;;;;;;;9.90;5.63;;;19.50;66.50;;;;;;5094051;28;20043;-71
2023/09/01 11:29:19;;;;;;;10.52;4.88;;;19.50;66.40;;;;;;5098043;28;20043;-70
2023/09/01 11:31:44;;;;;;;8.10;4.50;;;19.60;66.20;;;;;;5113928;28;20082;-71
2023/09/01 11:34:10;;;;;;;9.93;5.10;;;19.70;65.40;;;;;;5109335;28;20504;-71
2023/09/01 11:36:46;;;;;;;10.35;5.25;;;19.70;65.00;;;;;;5093123;28;20044;-71
2023/09/01 11:39:12;;;;;;;8.68;5.40;;;19.70;64.90;;;;;;5093316;28;20521;-71
2023/09/01 11:41:39;;;;;;;9.13;4.75;;;19.70;64.30;;;;;;5108318;28;20387;-71
2023/09/01 11:44:05;;;;;;;11.88;5.68;;;19.80;64.40;;;;;;5094310;28;20115;-71
2023/09/01 11:46:36;;;;;;;10.75;5.85;;;19.90;65.10;;;;;;5103291;28;20055;-71
2023/09/01 11:49:02;;;;;;;14.98;6.57;;;19.90;64.20;;;;;;5093934;28;20047;-71
2023/09/01 11:51:37;;;;;;;8.95;4.97;;;19.90;64.10;;;;;;5088592;28;21696;-70
2023/09/01 11:54:03;;;;;;;8.85;4.03;;;20.00;64.40;;;;;;5085357;28;20032;-71
2023/09/01 11:56:29;;;;;;;8.23;4.07;;;20.00;63.80;;;;;;5085650;28;20079;-71
2023/09/01 11:58:57;;;;;;;5.95;3.72;;;20.10;63.90;;;;;;5085574;28;20501;-71
2023/09/01 12:01:24;;;;;;;7.88;3.20;;;20.10;63.90;;;;;;5084320;28;20044;-70
2023/09/01 12:03:54;;;;;;;7.82;4.18;;;20.10;63.80;;;;;;5087209;28;20036;-71
2023/09/01 12:06:27;;;;;;;6.82;4.05;;;20.20;64.30;;;;;;5085564;28;20233;-71
2023/09/01 12:09:08;;;;;;;7.40;4.07;;;20.20;63.70;;;;;;5085311;28;20028;-71
2023/09/01 12:11:33;;;;;;;9.05;4.43;;;20.20;64.00;;;;;;5084546;28;20111;-71
2023/09/01 12:14:22;;;;;;;9.32;4.72;;;20.20;63.00;;;;;;5083536;28;20558;-71
2023/09/01 12:16:53;;;;;;;8.57;4.57;;;20.30;62.10;;;;;;5064775;28;20046;-71
2023/09/01 12:19:22;;;;;;;8.27;5.22;;;20.30;62.50;;;;;;5063161;28;20059;-71
2023/09/01 12:21:47;;;;;;;6.70;3.35;;;20.30;62.00;;;;;;5080627;28;20039;-72
2023/09/01 12:24:13;;;;;;;7.60;3.47;;;20.30;61.80;;;;;;5082018;28;20401;-71
2023/09/01 12:26:39;;;;;;;8.35;4.32;;;20.30;61.30;;;;;;5081539;28;20039;-71
2023/09/01 12:29:04;;;;;;;7.95;4.10;;;20.30;61.60;;;;;;5081941;28;20044;-71
2023/09/01 12:31:30;;;;;;;8.23;3.90;;;20.30;61.30;;;;;;5080248;28;20036;-71
2023/09/01 12:33:56;;;;;;;6.55;3.67;;;20.30;61.10;;;;;;5082845;28;20060;-71
2023/09/01 12:36:21;;;;;;;8.07;4.47;;;20.30;61.60;;;;;;5080643;28;20044;-71
2023/09/01 12:38:47;;;;;;;7.35;4.18;;;20.30;62.20;;;;;;5081910;28;20028;-71
2023/09/01 12:41:13;;;;;;;8.38;4.18;;;20.30;62.30;;;;;;5081441;28;20042;-71
2023/09/01 12:43:38;;;;;;;7.00;3.80;;;20.30;62.20;;;;;;5081078;28;20506;-70